sensor_id;sensor_type;location;lat;lon;timestamp;temperature;humidity
42199;DHT22;27868;45.184;5.786;2023-03-14T00:00:33;15.30;94.10
42199;DHT22;27868;45.184;5.786;2023-03-14T00:03:18;15.30;94.40
42199;DHT22;27868;45.184;5.786;2023-03-14T00:06:04;15.20;94.30
42199;DHT22;27868;45.184;5.786;2023-03-14T00:08:49;15.20;94.40
42199;DHT22;27868;45.184;5.786;2023-03-14T00:11:36;15.10;94.60
42199;DHT22;27868;45.184;5.786;2023-03-14T00:14:20;15.10;94.90
42199;DHT22;27868;45.184;5.786;2023-03-14T00:17:04;15.00;94.50
42199;DHT22;27868;45.184;5.786;2023-03-14T00:19:49;15.00;94.80
42199;DHT22;27868;45.184;5.786;2023-03-14T00:22:40;15.00;94.90
42199;DHT22;27868;45.184;5.786;2023-03-14T00:25:26;15.00;95.00
42199;DHT22;27868;45.184;5.786;2023-03-14T00:28:10;14.90;94.90
42199;DHT22;27868;45.184;5.786;2023-03-14T00:30:55;14.90;94.80
42199;DHT22;27868;45.184;5.786;2023-03-14T00:33:40;14.90;94.90
42199;DHT22;27868;45.184;5.786;2023-03-14T00:36:25;14.90;94.90
42199;DHT22;27868;45.184;5.786;2023-03-14T00:39:09;14.90;94.80
42199;DHT22;27868;45.184;5.786;2023-03-14T00:41:54;14.90;94.50
42199;DHT22;27868;45.184;5.786;2023-03-14T00:44:38;14.90;94.50
42199;DHT22;27868;45.184;5.786;2023-03-14T00:47:23;14.90;94.60
42199;DHT22;27868;45.184;5.786;2023-03-14T00:50:08;14.90;94.50
42199;DHT22;27868;45.184;5.786;2023-03-14T00:52:52;14.90;94.30
42199;DHT22;27868;45.184;5.786;2023-03-14T00:55:38;14.90;94.30
42199;DHT22;27868;45.184;5.786;2023-03-14T00:58:23;14.90;94.50
42199;DHT22;27868;45.184;5.786;2023-03-14T01:01:14;14.90;94.50
42199;DHT22;27868;45.184;5.786;2023-03-14T01:03:59;14.90;94.50
42199;DHT22;27868;45.184;5.786;2023-03-14T01:06:44;14.80;94.40
42199;DHT22;27868;45.184;5.786;2023-03-14T01:09:28;14.80;94.30
42199;DHT22;27868;45.184;5.786;2023-03-14T01:12:13;14.70;94.20
42199;DHT22;27868;45.184;5.786;2023-03-14T01:14:57;14.60;94.40
42199;DHT22;27868;45.184;5.786;2023-03-14T01:17:42;14.50;94.50
42199;DHT22;27868;45.184;5.786;2023-03-14T01:20:27;14.50;94.70
42199;DHT22;27868;45.184;5.786;2023-03-14T01:23:12;14.50;94.60
42199;DHT22;27868;45.184;5.786;2023-03-14T01:25:57;14.50;94.50
42199;DHT22;27868;45.184;5.786;2023-03-14T01:28:41;14.50;94.30
42199;DHT22;27868;45.184;5.786;2023-03-14T01:31:27;14.50;94.40
42199;DHT22;27868;45.184;5.786;2023-03-14T01:34:11;14.50;94.40
42199;DHT22;27868;45.184;5.786;2023-03-14T01:36:56;14.40;94.40
42199;DHT22;27868;45.184;5.786;2023-03-14T01:39:40;14.40;94.10
42199;DHT22;27868;45.184;5.786;2023-03-14T01:42:25;14.40;93.80
42199;DHT22;27868;45.184;5.786;2023-03-14T01:48:42;14.30;93.70
42199;DHT22;27868;45.184;5.786;2023-03-14T01:54:40;14.20;94.10
42199;DHT22;27868;45.184;5.786;2023-03-14T01:57:31;14.20;94.20
42199;DHT22;27868;45.184;5.786;2023-03-14T02:00:19;14.20;94.20
42199;DHT22;27868;45.184;5.786;2023-03-14T02:03:09;14.20;94.00
42199;DHT22;27868;45.184;5.786;2023-03-14T02:05:57;14.20;94.20
42199;DHT22;27868;45.184;5.786;2023-03-14T02:08:43;14.20;94.20
42199;DHT22;27868;45.184;5.786;2023-03-14T02:11:32;14.20;94.20
42199;DHT22;27868;45.184;5.786;2023-03-14T02:14:32;14.20;94.10
42199;DHT22;27868;45.184;5.786;2023-03-14T02:17:19;14.10;94.30
42199;DHT22;27868;45.184;5.786;2023-03-14T02:20:16;14.10;94.40
42199;DHT22;27868;45.184;5.786;2023-03-14T02:23:03;14.10;94.60
42199;DHT22;27868;45.184;5.786;2023-03-14T02:25:54;14.10;94.60
42199;DHT22;27868;45.184;5.786;2023-03-14T02:28:41;14.10;94.60
42199;DHT22;27868;45.184;5.786;2023-03-14T02:31:26;14.10;94.60
42199;DHT22;27868;45.184;5.786;2023-03-14T02:34:12;14.10;94.60
42199;DHT22;27868;45.184;5.786;2023-03-14T02:36:57;14.00;94.60
42199;DHT22;27868;45.184;5.786;2023-03-14T02:39:44;14.00;94.50
42199;DHT22;27868;45.184;5.786;2023-03-14T02:42:29;13.90;94.50
42199;DHT22;27868;45.184;5.786;2023-03-14T02:48:03;13.90;94.50
42199;DHT22;27868;45.184;5.786;2023-03-14T02:50:51;13.90;94.60
42199;DHT22;27868;45.184;5.786;2023-03-14T02:53:38;13.90;94.60
42199;DHT22;27868;45.184;5.786;2023-03-14T02:56:23;13.90;94.50
42199;DHT22;27868;45.184;5.786;2023-03-14T02:59:07;13.90;94.60
42199;DHT22;27868;45.184;5.786;2023-03-14T03:01:52;13.90;94.60
42199;DHT22;27868;45.184;5.786;2023-03-14T03:04:36;13.90;94.60
42199;DHT22;27868;45.184;5.786;2023-03-14T03:07:21;13.80;94.60
42199;DHT22;27868;45.184;5.786;2023-03-14T03:10:06;13.90;94.50
42199;DHT22;27868;45.184;5.786;2023-03-14T03:12:51;13.80;94.50
42199;DHT22;27868;45.184;5.786;2023-03-14T03:15:36;13.80;94.50
42199;DHT22;27868;45.184;5.786;2023-03-14T03:18:21;13.80;94.40
42199;DHT22;27868;45.184;5.786;2023-03-14T03:21:06;13.70;94.40
42199;DHT22;27868;45.184;5.786;2023-03-14T03:23:53;13.70;94.40
42199;DHT22;27868;45.184;5.786;2023-03-14T03:26:37;13.60;94.40
42199;DHT22;27868;45.184;5.786;2023-03-14T03:29:22;13.60;94.50
42199;DHT22;27868;45.184;5.786;2023-03-14T03:32:06;13.60;94.60
42199;DHT22;27868;45.184;5.786;2023-03-14T03:34:50;13.70;94.60
42199;DHT22;27868;45.184;5.786;2023-03-14T03:37:36;13.60;94.60
42199;DHT22;27868;45.184;5.786;2023-03-14T03:40:21;13.60;94.60
42199;DHT22;27868;45.184;5.786;2023-03-14T03:43:06;13.60;94.70
42199;DHT22;27868;45.184;5.786;2023-03-14T03:45:51;13.60;94.70
42199;DHT22;27868;45.184;5.786;2023-03-14T03:48:36;13.50;94.70
42199;DHT22;27868;45.184;5.786;2023-03-14T03:51:21;13.50;94.80
42199;DHT22;27868;45.184;5.786;2023-03-14T03:54:06;13.50;94.70
42199;DHT22;27868;45.184;5.786;2023-03-14T03:56:51;13.50;94.80
42199;DHT22;27868;45.184;5.786;2023-03-14T03:59:36;13.50;94.70
42199;DHT22;27868;45.184;5.786;2023-03-14T04:02:20;13.50;94.70
42199;DHT22;27868;45.184;5.786;2023-03-14T04:05:05;13.50;94.70
42199;DHT22;27868;45.184;5.786;2023-03-14T04:07:50;13.50;94.70
42199;DHT22;27868;45.184;5.786;2023-03-14T04:10:35;13.40;94.70
42199;DHT22;27868;45.184;5.786;2023-03-14T04:13:20;13.40;94.70
42199;DHT22;27868;45.184;5.786;2023-03-14T04:16:14;13.40;94.70
42199;DHT22;27868;45.184;5.786;2023-03-14T04:19:00;13.30;94.70
42199;DHT22;27868;45.184;5.786;2023-03-14T04:21:45;13.30;94.70
42199;DHT22;27868;45.184;5.786;2023-03-14T04:24:31;13.30;94.70
42199;DHT22;27868;45.184;5.786;2023-03-14T04:27:15;13.30;94.60
42199;DHT22;27868;45.184;5.786;2023-03-14T04:30:00;13.30;94.60
42199;DHT22;27868;45.184;5.786;2023-03-14T04:32:44;13.30;94.60
42199;DHT22;27868;45.184;5.786;2023-03-14T04:35:33;13.30;94.70
42199;DHT22;27868;45.184;5.786;2023-03-14T04:38:18;13.20;95.00
42199;DHT22;27868;45.184;5.786;2023-03-14T04:41:02;13.20;94.70
42199;DHT22;27868;45.184;5.786;2023-03-14T04:43:47;13.20;94.80
42199;DHT22;27868;45.184;5.786;2023-03-14T04:46:32;13.20;94.80
42199;DHT22;27868;45.184;5.786;2023-03-14T04:49:16;13.20;94.80
42199;DHT22;27868;45.184;5.786;2023-03-14T04:52:01;13.20;94.90
42199;DHT22;27868;45.184;5.786;2023-03-14T04:54:45;13.20;94.90
42199;DHT22;27868;45.184;5.786;2023-03-14T04:57:30;13.20;94.90
42199;DHT22;27868;45.184;5.786;2023-03-14T05:00:14;13.20;95.00
42199;DHT22;27868;45.184;5.786;2023-03-14T05:03:02;13.20;95.00
42199;DHT22;27868;45.184;5.786;2023-03-14T05:05:47;13.20;95.00
42199;DHT22;27868;45.184;5.786;2023-03-14T05:08:31;13.20;95.30
42199;DHT22;27868;45.184;5.786;2023-03-14T05:11:16;13.10;95.10
42199;DHT22;27868;45.184;5.786;2023-03-14T05:14:00;13.20;95.20
42199;DHT22;27868;45.184;5.786;2023-03-14T05:16:45;13.20;95.20
42199;DHT22;27868;45.184;5.786;2023-03-14T05:19:29;13.20;95.20
42199;DHT22;27868;45.184;5.786;2023-03-14T05:22:14;13.20;95.30
42199;DHT22;27868;45.184;5.786;2023-03-14T05:24:59;13.10;95.30
42199;DHT22;27868;45.184;5.786;2023-03-14T05:27:43;13.10;95.40
42199;DHT22;27868;45.184;5.786;2023-03-14T05:30:28;13.10;95.40
42199;DHT22;27868;45.184;5.786;2023-03-14T05:33:13;13.10;95.50
42199;DHT22;27868;45.184;5.786;2023-03-14T05:35:57;13.00;95.40
42199;DHT22;27868;45.184;5.786;2023-03-14T05:38:42;13.10;95.40
42199;DHT22;27868;45.184;5.786;2023-03-14T05:41:26;13.00;95.40
42199;DHT22;27868;45.184;5.786;2023-03-14T05:44:11;13.00;95.50
42199;DHT22;27868;45.184;5.786;2023-03-14T05:46:55;13.00;95.50
42199;DHT22;27868;45.184;5.786;2023-03-14T05:49:40;13.00;95.50
42199;DHT22;27868;45.184;5.786;2023-03-14T05:52:24;13.00;95.60
42199;DHT22;27868;45.184;5.786;2023-03-14T05:55:09;13.00;95.70
42199;DHT22;27868;45.184;5.786;2023-03-14T05:57:54;13.00;95.80
42199;DHT22;27868;45.184;5.786;2023-03-14T06:00:38;13.00;95.70
42199;DHT22;27868;45.184;5.786;2023-03-14T06:03:23;13.00;95.70
42199;DHT22;27868;45.184;5.786;2023-03-14T06:06:07;13.00;95.80
42199;DHT22;27868;45.184;5.786;2023-03-14T06:08:52;13.00;95.80
42199;DHT22;27868;45.184;5.786;2023-03-14T06:11:37;13.00;95.80
42199;DHT22;27868;45.184;5.786;2023-03-14T06:14:21;13.00;95.70
42199;DHT22;27868;45.184;5.786;2023-03-14T06:17:06;13.00;95.80
42199;DHT22;27868;45.184;5.786;2023-03-14T06:19:51;12.90;95.80
42199;DHT22;27868;45.184;5.786;2023-03-14T06:22:35;13.00;95.90
42199;DHT22;27868;45.184;5.786;2023-03-14T06:25:20;12.90;95.90
42199;DHT22;27868;45.184;5.786;2023-03-14T06:28:05;12.90;96.00
42199;DHT22;27868;45.184;5.786;2023-03-14T06:30:49;13.00;96.00
42199;DHT22;27868;45.184;5.786;2023-03-14T06:33:34;12.90;96.00
42199;DHT22;27868;45.184;5.786;2023-03-14T06:36:18;12.90;96.10
42199;DHT22;27868;45.184;5.786;2023-03-14T06:39:03;13.00;96.10
42199;DHT22;27868;45.184;5.786;2023-03-14T06:41:47;12.90;96.00
42199;DHT22;27868;45.184;5.786;2023-03-14T06:44:32;13.00;96.10
42199;DHT22;27868;45.184;5.786;2023-03-14T06:47:17;12.90;96.10
42199;DHT22;27868;45.184;5.786;2023-03-14T06:50:02;12.90;96.10
42199;DHT22;27868;45.184;5.786;2023-03-14T06:52:47;12.90;96.20
42199;DHT22;27868;45.184;5.786;2023-03-14T06:55:32;12.90;96.20
42199;DHT22;27868;45.184;5.786;2023-03-14T06:58:17;12.90;96.30
42199;DHT22;27868;45.184;5.786;2023-03-14T07:01:01;12.90;96.40
42199;DHT22;27868;45.184;5.786;2023-03-14T07:03:47;12.90;96.40
42199;DHT22;27868;45.184;5.786;2023-03-14T07:06:32;12.90;96.50
42199;DHT22;27868;45.184;5.786;2023-03-14T07:09:17;12.90;96.50
42199;DHT22;27868;45.184;5.786;2023-03-14T07:12:02;12.90;96.50
42199;DHT22;27868;45.184;5.786;2023-03-14T07:14:48;12.90;96.60
42199;DHT22;27868;45.184;5.786;2023-03-14T07:17:33;12.90;96.70
42199;DHT22;27868;45.184;5.786;2023-03-14T07:20:17;13.00;96.70
42199;DHT22;27868;45.184;5.786;2023-03-14T07:23:02;13.00;96.70
42199;DHT22;27868;45.184;5.786;2023-03-14T07:25:47;13.00;96.50
42199;DHT22;27868;45.184;5.786;2023-03-14T07:28:32;13.00;96.50
42199;DHT22;27868;45.184;5.786;2023-03-14T07:31:16;13.00;96.40
42199;DHT22;27868;45.184;5.786;2023-03-14T07:34:01;13.00;96.50
42199;DHT22;27868;45.184;5.786;2023-03-14T07:36:46;13.00;96.50
42199;DHT22;27868;45.184;5.786;2023-03-14T07:39:31;13.00;96.40
42199;DHT22;27868;45.184;5.786;2023-03-14T07:42:16;13.00;96.40
42199;DHT22;27868;45.184;5.786;2023-03-14T07:45:01;13.00;96.40
42199;DHT22;27868;45.184;5.786;2023-03-14T07:47:47;13.00;96.40
42199;DHT22;27868;45.184;5.786;2023-03-14T07:50:31;13.00;96.20
42199;DHT22;27868;45.184;5.786;2023-03-14T07:53:16;13.00;96.30
42199;DHT22;27868;45.184;5.786;2023-03-14T07:56:00;13.00;96.20
42199;DHT22;27868;45.184;5.786;2023-03-14T07:58:45;13.00;96.20
42199;DHT22;27868;45.184;5.786;2023-03-14T08:01:29;13.00;96.10
42199;DHT22;27868;45.184;5.786;2023-03-14T08:04:14;13.00;96.20
42199;DHT22;27868;45.184;5.786;2023-03-14T08:06:58;12.80;96.40
42199;DHT22;27868;45.184;5.786;2023-03-14T08:09:43;12.90;96.30
42199;DHT22;27868;45.184;5.786;2023-03-14T08:12:28;12.90;96.20
42199;DHT22;27868;45.184;5.786;2023-03-14T08:15:12;12.90;96.40
42199;DHT22;27868;45.184;5.786;2023-03-14T08:17:57;12.90;96.40
42199;DHT22;27868;45.184;5.786;2023-03-14T08:20:42;12.90;96.40
42199;DHT22;27868;45.184;5.786;2023-03-14T08:23:26;12.90;96.50
42199;DHT22;27868;45.184;5.786;2023-03-14T08:26:11;12.80;96.40
42199;DHT22;27868;45.184;5.786;2023-03-14T08:28:56;12.90;96.50
42199;DHT22;27868;45.184;5.786;2023-03-14T08:31:40;12.80;96.40
42199;DHT22;27868;45.184;5.786;2023-03-14T08:34:25;12.90;96.50
42199;DHT22;27868;45.184;5.786;2023-03-14T08:37:09;12.80;96.50
42199;DHT22;27868;45.184;5.786;2023-03-14T08:39:54;12.90;96.60
42199;DHT22;27868;45.184;5.786;2023-03-14T08:42:39;12.80;96.50
42199;DHT22;27868;45.184;5.786;2023-03-14T08:45:24;12.80;96.60
42199;DHT22;27868;45.184;5.786;2023-03-14T08:48:09;12.80;96.50
42199;DHT22;27868;45.184;5.786;2023-03-14T08:50:54;12.80;96.50
42199;DHT22;27868;45.184;5.786;2023-03-14T08:53:40;12.80;96.60
42199;DHT22;27868;45.184;5.786;2023-03-14T08:56:24;12.80;96.60
42199;DHT22;27868;45.184;5.786;2023-03-14T08:59:09;12.80;96.70
42199;DHT22;27868;45.184;5.786;2023-03-14T09:01:55;12.80;96.70
42199;DHT22;27868;45.184;5.786;2023-03-14T09:04:40;12.80;96.80
42199;DHT22;27868;45.184;5.786;2023-03-14T09:07:24;12.80;96.80
42199;DHT22;27868;45.184;5.786;2023-03-14T09:10:10;12.80;96.80
42199;DHT22;27868;45.184;5.786;2023-03-14T09:12:55;12.80;96.80
42199;DHT22;27868;45.184;5.786;2023-03-14T09:15:41;12.80;96.80
42199;DHT22;27868;45.184;5.786;2023-03-14T09:18:26;12.80;97.00
42199;DHT22;27868;45.184;5.786;2023-03-14T09:21:11;12.80;97.30
42199;DHT22;27868;45.184;5.786;2023-03-14T09:23:55;12.90;97.10
42199;DHT22;27868;45.184;5.786;2023-03-14T09:26:40;12.80;97.10
42199;DHT22;27868;45.184;5.786;2023-03-14T09:29:24;12.90;97.10
42199;DHT22;27868;45.184;5.786;2023-03-14T09:32:09;12.90;97.10
42199;DHT22;27868;45.184;5.786;2023-03-14T09:34:54;12.90;97.00
42199;DHT22;27868;45.184;5.786;2023-03-14T09:37:38;12.90;97.10
42199;DHT22;27868;45.184;5.786;2023-03-14T09:40:23;12.90;97.20
42199;DHT22;27868;45.184;5.786;2023-03-14T09:43:11;12.90;97.20
42199;DHT22;27868;45.184;5.786;2023-03-14T09:46:00;13.00;97.10
42199;DHT22;27868;45.184;5.786;2023-03-14T09:48:46;12.90;96.90
42199;DHT22;27868;45.184;5.786;2023-03-14T09:51:31;12.90;97.10
42199;DHT22;27868;45.184;5.786;2023-03-14T09:54:29;12.90;97.10
42199;DHT22;27868;45.184;5.786;2023-03-14T09:57:16;12.90;97.30
42199;DHT22;27868;45.184;5.786;2023-03-14T10:00:22;12.90;97.00
42199;DHT22;27868;45.184;5.786;2023-03-14T10:05:58;12.90;97.20
42199;DHT22;27868;45.184;5.786;2023-03-14T10:08:44;12.90;97.10
42199;DHT22;27868;45.184;5.786;2023-03-14T10:11:29;12.90;97.20
42199;DHT22;27868;45.184;5.786;2023-03-14T10:14:38;12.90;97.20
42199;DHT22;27868;45.184;5.786;2023-03-14T10:17:29;13.00;97.30
42199;DHT22;27868;45.184;5.786;2023-03-14T10:20:40;13.00;97.50
42199;DHT22;27868;45.184;5.786;2023-03-14T10:23:32;13.00;97.40
42199;DHT22;27868;45.184;5.786;2023-03-14T10:26:24;13.00;97.30
42199;DHT22;27868;45.184;5.786;2023-03-14T10:29:12;13.00;97.20
42199;DHT22;27868;45.184;5.786;2023-03-14T10:32:02;13.00;97.10
42199;DHT22;27868;45.184;5.786;2023-03-14T10:38:00;13.00;97.10
42199;DHT22;27868;45.184;5.786;2023-03-14T10:40:50;12.90;97.10
42199;DHT22;27868;45.184;5.786;2023-03-14T10:43:37;12.90;97.40
42199;DHT22;27868;45.184;5.786;2023-03-14T10:46:24;12.80;97.10
42199;DHT22;27868;45.184;5.786;2023-03-14T10:49:26;12.80;97.10
42199;DHT22;27868;45.184;5.786;2023-03-14T10:52:22;12.90;97.00
42199;DHT22;27868;45.184;5.786;2023-03-14T10:55:12;12.90;97.10
42199;DHT22;27868;45.184;5.786;2023-03-14T10:57:57;12.80;96.80
42199;DHT22;27868;45.184;5.786;2023-03-14T11:00:43;12.90;97.00
42199;DHT22;27868;45.184;5.786;2023-03-14T11:03:31;13.00;96.70
42199;DHT22;27868;45.184;5.786;2023-03-14T11:09:11;13.00;95.90
42199;DHT22;27868;45.184;5.786;2023-03-14T11:12:38;13.00;96.20
42199;DHT22;27868;45.184;5.786;2023-03-14T11:16:20;13.00;96.50
42199;DHT22;27868;45.184;5.786;2023-03-14T11:22:05;13.10;95.90
42199;DHT22;27868;45.184;5.786;2023-03-14T11:25:38;13.10;96.10
42199;DHT22;27868;45.184;5.786;2023-03-14T11:28:18;13.10;96.00
42199;DHT22;27868;45.184;5.786;2023-03-14T11:34:17;13.30;95.20
42199;DHT22;27868;45.184;5.786;2023-03-14T11:37:25;13.30;95.20
42199;DHT22;27868;45.184;5.786;2023-03-14T11:40:17;13.40;95.50
42199;DHT22;27868;45.184;5.786;2023-03-14T11:43:17;13.50;95.70
42199;DHT22;27868;45.184;5.786;2023-03-14T11:46:16;13.50;95.50
42199;DHT22;27868;45.184;5.786;2023-03-14T11:49:14;13.60;95.10
42199;DHT22;27868;45.184;5.786;2023-03-14T11:52:05;13.80;92.00
42199;DHT22;27868;45.184;5.786;2023-03-14T11:54:58;13.70;91.60
42199;DHT22;27868;45.184;5.786;2023-03-14T11:57:46;13.60;92.60
42199;DHT22;27868;45.184;5.786;2023-03-14T12:00:31;13.70;90.40
42199;DHT22;27868;45.184;5.786;2023-03-14T12:09:05;13.80;90.80
42199;DHT22;27868;45.184;5.786;2023-03-14T12:11:56;13.60;88.60
42199;DHT22;27868;45.184;5.786;2023-03-14T12:14:52;13.70;90.00
42199;DHT22;27868;45.184;5.786;2023-03-14T12:17:37;13.80;89.80
42199;DHT22;27868;45.184;5.786;2023-03-14T12:20:24;13.80;90.00
42199;DHT22;27868;45.184;5.786;2023-03-14T12:23:11;13.70;88.00
42199;DHT22;27868;45.184;5.786;2023-03-14T12:26:27;13.80;87.80
42199;DHT22;27868;45.184;5.786;2023-03-14T12:29:16;13.70;88.00
42199;DHT22;27868;45.184;5.786;2023-03-14T12:34:45;13.10;85.90
42199;DHT22;27868;45.184;5.786;2023-03-14T12:37:36;12.90;88.80
42199;DHT22;27868;45.184;5.786;2023-03-14T12:40:31;13.10;89.50
42199;DHT22;27868;45.184;5.786;2023-03-14T12:43:31;13.10;90.20
42199;DHT22;27868;45.184;5.786;2023-03-14T12:51:47;13.20;91.20
42199;DHT22;27868;45.184;5.786;2023-03-14T12:55:05;13.30;91.60
42199;DHT22;27868;45.184;5.786;2023-03-14T12:57:57;13.50;91.60
42199;DHT22;27868;45.184;5.786;2023-03-14T13:00:44;13.60;91.30
42199;DHT22;27868;45.184;5.786;2023-03-14T13:06:51;13.90;89.00
42199;DHT22;27868;45.184;5.786;2023-03-14T13:09:54;14.10;89.20
42199;DHT22;27868;45.184;5.786;2023-03-14T13:15:44;14.20;87.10
42199;DHT22;27868;45.184;5.786;2023-03-14T13:21:24;14.30;84.30
42199;DHT22;27868;45.184;5.786;2023-03-14T13:24:24;14.40;86.10
42199;DHT22;27868;45.184;5.786;2023-03-14T13:27:17;14.40;86.80
42199;DHT22;27868;45.184;5.786;2023-03-14T13:30:22;14.30;87.20
42199;DHT22;27868;45.184;5.786;2023-03-14T13:33:16;14.30;87.10
42199;DHT22;27868;45.184;5.786;2023-03-14T13:36:04;14.40;87.70
42199;DHT22;27868;45.184;5.786;2023-03-14T13:38:58;14.50;82.20
42199;DHT22;27868;45.184;5.786;2023-03-14T13:41:45;14.50;84.10
42199;DHT22;27868;45.184;5.786;2023-03-14T13:44:33;14.40;84.60
42199;DHT22;27868;45.184;5.786;2023-03-14T13:47:20;14.30;84.80
42199;DHT22;27868;45.184;5.786;2023-03-14T13:50:12;14.30;84.20
42199;DHT22;27868;45.184;5.786;2023-03-14T13:52:57;14.30;83.90
42199;DHT22;27868;45.184;5.786;2023-03-14T13:55:42;14.10;84.60
42199;DHT22;27868;45.184;5.786;2023-03-14T13:58:29;14.10;84.70
42199;DHT22;27868;45.184;5.786;2023-03-14T14:01:22;14.30;82.70
42199;DHT22;27868;45.184;5.786;2023-03-14T14:04:15;14.10;84.10
42199;DHT22;27868;45.184;5.786;2023-03-14T14:07:00;14.00;86.20
42199;DHT22;27868;45.184;5.786;2023-03-14T14:09:52;13.90;86.60
42199;DHT22;27868;45.184;5.786;2023-03-14T14:12:44;13.80;87.70
42199;DHT22;27868;45.184;5.786;2023-03-14T14:15:39;13.80;88.60
42199;DHT22;27868;45.184;5.786;2023-03-14T14:18:26;13.80;88.70
42199;DHT22;27868;45.184;5.786;2023-03-14T14:21:13;13.70;89.00
42199;DHT22;27868;45.184;5.786;2023-03-14T14:23:58;13.70;88.50
42199;DHT22;27868;45.184;5.786;2023-03-14T14:26:51;13.60;88.70
42199;DHT22;27868;45.184;5.786;2023-03-14T14:29:36;13.60;89.00
42199;DHT22;27868;45.184;5.786;2023-03-14T14:32:21;13.50;89.40
42199;DHT22;27868;45.184;5.786;2023-03-14T14:35:07;13.50;89.20
42199;DHT22;27868;45.184;5.786;2023-03-14T14:37:52;13.50;89.80
42199;DHT22;27868;45.184;5.786;2023-03-14T14:40:50;13.50;89.80
42199;DHT22;27868;45.184;5.786;2023-03-14T14:43:39;13.50;87.90
42199;DHT22;27868;45.184;5.786;2023-03-14T14:46:27;13.40;87.00
42199;DHT22;27868;45.184;5.786;2023-03-14T14:49:14;13.50;87.50
42199;DHT22;27868;45.184;5.786;2023-03-14T14:52:17;13.60;87.90
42199;DHT22;27868;45.184;5.786;2023-03-14T14:55:11;13.60;87.80
42199;DHT22;27868;45.184;5.786;2023-03-14T14:57:56;13.50;88.90
42199;DHT22;27868;45.184;5.786;2023-03-14T15:00:41;13.60;86.80
42199;DHT22;27868;45.184;5.786;2023-03-14T15:03:29;13.60;87.60
42199;DHT22;27868;45.184;5.786;2023-03-14T15:06:15;13.60;88.20
42199;DHT22;27868;45.184;5.786;2023-03-14T15:09:00;13.60;88.70
42199;DHT22;27868;45.184;5.786;2023-03-14T15:11:45;13.60;89.10
42199;DHT22;27868;45.184;5.786;2023-03-14T15:14:29;13.40;86.80
42199;DHT22;27868;45.184;5.786;2023-03-14T15:17:14;13.40;86.00
42199;DHT22;27868;45.184;5.786;2023-03-14T15:19:59;13.30;86.80
42199;DHT22;27868;45.184;5.786;2023-03-14T15:22:43;13.20;87.80
42199;DHT22;27868;45.184;5.786;2023-03-14T15:25:28;13.10;85.80
42199;DHT22;27868;45.184;5.786;2023-03-14T15:28:33;13.00;87.20
42199;DHT22;27868;45.184;5.786;2023-03-14T15:31:19;13.00;88.30
42199;DHT22;27868;45.184;5.786;2023-03-14T15:34:05;13.00;88.10
42199;DHT22;27868;45.184;5.786;2023-03-14T15:36:50;12.90;89.30
42199;DHT22;27868;45.184;5.786;2023-03-14T15:39:34;12.90;90.20
42199;DHT22;27868;45.184;5.786;2023-03-14T15:42:19;12.80;90.60
42199;DHT22;27868;45.184;5.786;2023-03-14T15:45:04;12.80;90.30
42199;DHT22;27868;45.184;5.786;2023-03-14T15:47:49;12.70;91.00
42199;DHT22;27868;45.184;5.786;2023-03-14T15:50:34;12.70;90.50
42199;DHT22;27868;45.184;5.786;2023-03-14T15:53:18;12.60;90.50
42199;DHT22;27868;45.184;5.786;2023-03-14T15:56:05;12.60;90.60
42199;DHT22;27868;45.184;5.786;2023-03-14T15:58:50;12.60;90.10
42199;DHT22;27868;45.184;5.786;2023-03-14T16:01:35;12.50;90.40
42199;DHT22;27868;45.184;5.786;2023-03-14T16:04:20;12.50;90.20
42199;DHT22;27868;45.184;5.786;2023-03-14T16:07:04;12.60;90.20
42199;DHT22;27868;45.184;5.786;2023-03-14T16:09:49;12.60;90.10
42199;DHT22;27868;45.184;5.786;2023-03-14T16:12:34;12.60;89.80
42199;DHT22;27868;45.184;5.786;2023-03-14T16:15:18;12.70;86.00
42199;DHT22;27868;45.184;5.786;2023-03-14T16:18:03;12.70;85.80
42199;DHT22;27868;45.184;5.786;2023-03-14T16:21:02;12.60;86.30
42199;DHT22;27868;45.184;5.786;2023-03-14T16:23:49;12.60;84.50
42199;DHT22;27868;45.184;5.786;2023-03-14T16:26:34;12.50;85.50
42199;DHT22;27868;45.184;5.786;2023-03-14T16:29:20;12.50;85.50
42199;DHT22;27868;45.184;5.786;2023-03-14T16:32:05;12.40;86.40
42199;DHT22;27868;45.184;5.786;2023-03-14T16:34:51;12.50;86.10
42199;DHT22;27868;45.184;5.786;2023-03-14T16:37:35;12.40;85.70
42199;DHT22;27868;45.184;5.786;2023-03-14T16:40:20;12.40;87.30
42199;DHT22;27868;45.184;5.786;2023-03-14T16:43:04;12.30;87.80
42199;DHT22;27868;45.184;5.786;2023-03-14T16:45:49;12.30;88.80
42199;DHT22;27868;45.184;5.786;2023-03-14T16:48:34;12.30;88.30
42199;DHT22;27868;45.184;5.786;2023-03-14T16:51:19;12.40;87.50
42199;DHT22;27868;45.184;5.786;2023-03-14T16:54:04;12.50;86.10
42199;DHT22;27868;45.184;5.786;2023-03-14T16:56:49;12.40;86.80
42199;DHT22;27868;45.184;5.786;2023-03-14T16:59:34;12.30;87.80
42199;DHT22;27868;45.184;5.786;2023-03-14T17:02:19;12.20;88.50
42199;DHT22;27868;45.184;5.786;2023-03-14T17:05:03;12.20;89.30
42199;DHT22;27868;45.184;5.786;2023-03-14T17:07:48;12.20;89.80
42199;DHT22;27868;45.184;5.786;2023-03-14T17:10:33;12.20;90.10
42199;DHT22;27868;45.184;5.786;2023-03-14T17:13:18;12.10;90.20
42199;DHT22;27868;45.184;5.786;2023-03-14T17:16:09;12.10;90.40
42199;DHT22;27868;45.184;5.786;2023-03-14T17:18:54;12.00;90.50
42199;DHT22;27868;45.184;5.786;2023-03-14T17:21:38;12.00;90.50
42199;DHT22;27868;45.184;5.786;2023-03-14T17:24:23;12.00;90.60
42199;DHT22;27868;45.184;5.786;2023-03-14T17:27:08;12.00;90.80
42199;DHT22;27868;45.184;5.786;2023-03-14T17:29:52;12.00;90.80
42199;DHT22;27868;45.184;5.786;2023-03-14T17:32:37;12.00;90.90
42199;DHT22;27868;45.184;5.786;2023-03-14T17:35:22;11.90;90.90
42199;DHT22;27868;45.184;5.786;2023-03-14T17:38:06;11.90;91.00
42199;DHT22;27868;45.184;5.786;2023-03-14T17:40:52;11.90;91.10
42199;DHT22;27868;45.184;5.786;2023-03-14T17:43:37;11.80;91.30
42199;DHT22;27868;45.184;5.786;2023-03-14T17:46:23;11.80;91.40
42199;DHT22;27868;45.184;5.786;2023-03-14T17:49:09;11.80;91.50
42199;DHT22;27868;45.184;5.786;2023-03-14T17:51:53;11.70;91.60
42199;DHT22;27868;45.184;5.786;2023-03-14T17:54:38;11.70;91.60
42199;DHT22;27868;45.184;5.786;2023-03-14T17:57:23;11.60;91.70
42199;DHT22;27868;45.184;5.786;2023-03-14T18:00:08;11.60;91.70
42199;DHT22;27868;45.184;5.786;2023-03-14T18:02:54;11.60;91.80
42199;DHT22;27868;45.184;5.786;2023-03-14T18:05:39;11.50;91.80
42199;DHT22;27868;45.184;5.786;2023-03-14T18:08:24;11.50;91.80
42199;DHT22;27868;45.184;5.786;2023-03-14T18:11:10;11.50;91.90
42199;DHT22;27868;45.184;5.786;2023-03-14T18:13:55;11.40;91.90
42199;DHT22;27868;45.184;5.786;2023-03-14T18:16:41;11.40;91.90
42199;DHT22;27868;45.184;5.786;2023-03-14T18:19:28;11.40;92.20
42199;DHT22;27868;45.184;5.786;2023-03-14T18:22:13;11.40;92.00